sensor_id;sensor_type;location;lat;lon;timestamp;temperature;humidity
17639;DHT22;8938;53.546;9.954;2023-03-01T00:01:06;7.60;91.80
17639;DHT22;8938;53.546;9.954;2023-03-01T00:03:32;7.40;92.00
17639;DHT22;8938;53.546;9.954;2023-03-01T00:05:58;7.40;92.10
17639;DHT22;8938;53.546;9.954;2023-03-01T00:08:24;7.50;92.20
17639;DHT22;8938;53.546;9.954;2023-03-01T00:11:03;7.50;92.10
17639;DHT22;8938;53.546;9.954;2023-03-01T00:13:29;7.60;92.20
17639;DHT22;8938;53.546;9.954;2023-03-01T00:15:54;7.50;92.20
17639;DHT22;8938;53.546;9.954;2023-03-01T00:18:20;7.50;92.20
17639;DHT22;8938;53.546;9.954;2023-03-01T00:20:53;7.50;92.20
17639;DHT22;8938;53.546;9.954;2023-03-01T00:23:19;7.50;92.30
17639;DHT22;8938;53.546;9.954;2023-03-01T00:25:45;7.50;92.30
17639;DHT22;8938;53.546;9.954;2023-03-01T00:28:10;7.50;92.30
17639;DHT22;8938;53.546;9.954;2023-03-01T00:30:36;7.50;92.30
17639;DHT22;8938;53.546;9.954;2023-03-01T00:33:01;7.40;92.40
17639;DHT22;8938;53.546;9.954;2023-03-01T00:35:27;7.20;92.50
17639;DHT22;8938;53.546;9.954;2023-03-01T00:37:52;7.20;92.80
17639;DHT22;8938;53.546;9.954;2023-03-01T00:40:27;7.10;92.80
17639;DHT22;8938;53.546;9.954;2023-03-01T00:42:52;7.10;93.00
17639;DHT22;8938;53.546;9.954;2023-03-01T00:45:18;7.20;93.10
17639;DHT22;8938;53.546;9.954;2023-03-01T00:47:43;7.30;93.00
17639;DHT22;8938;53.546;9.954;2023-03-01T00:50:09;7.20;93.00
17639;DHT22;8938;53.546;9.954;2023-03-01T00:52:35;7.20;93.10
17639;DHT22;8938;53.546;9.954;2023-03-01T00:55:01;7.20;93.20
17639;DHT22;8938;53.546;9.954;2023-03-01T00:57:26;7.10;93.30
17639;DHT22;8938;53.546;9.954;2023-03-01T00:59:52;7.00;93.30
17639;DHT22;8938;53.546;9.954;2023-03-01T01:02:18;6.90;93.40
17639;DHT22;8938;53.546;9.954;2023-03-01T01:04:45;7.00;93.50
17639;DHT22;8938;53.546;9.954;2023-03-01T01:07:10;7.00;93.60
17639;DHT22;8938;53.546;9.954;2023-03-01T01:09:36;6.90;93.60
17639;DHT22;8938;53.546;9.954;2023-03-01T01:12:02;6.90;93.70
17639;DHT22;8938;53.546;9.954;2023-03-01T01:14:28;6.80;93.80
17639;DHT22;8938;53.546;9.954;2023-03-01T01:16:54;6.80;93.80
17639;DHT22;8938;53.546;9.954;2023-03-01T01:19:19;6.80;93.70
17639;DHT22;8938;53.546;9.954;2023-03-01T01:21:45;6.80;93.70
17639;DHT22;8938;53.546;9.954;2023-03-01T01:24:12;6.80;93.60
17639;DHT22;8938;53.546;9.954;2023-03-01T01:26:37;6.80;93.70
17639;DHT22;8938;53.546;9.954;2023-03-01T01:29:04;6.80;93.60
17639;DHT22;8938;53.546;9.954;2023-03-01T01:31:31;6.80;93.60
17639;DHT22;8938;53.546;9.954;2023-03-01T01:33:57;6.80;93.50
17639;DHT22;8938;53.546;9.954;2023-03-01T01:36:23;6.80;93.50
17639;DHT22;8938;53.546;9.954;2023-03-01T01:38:49;6.80;93.40
17639;DHT22;8938;53.546;9.954;2023-03-01T01:41:15;6.80;93.40
17639;DHT22;8938;53.546;9.954;2023-03-01T01:43:43;6.80;93.40
17639;DHT22;8938;53.546;9.954;2023-03-01T01:46:29;6.90;93.40
17639;DHT22;8938;53.546;9.954;2023-03-01T01:49:00;6.80;93.00
17639;DHT22;8938;53.546;9.954;2023-03-01T01:51:31;6.90;93.10
17639;DHT22;8938;53.546;9.954;2023-03-01T01:54:09;6.80;93.10
17639;DHT22;8938;53.546;9.954;2023-03-01T01:56:38;6.80;93.10
17639;DHT22;8938;53.546;9.954;2023-03-01T01:59:05;6.90;93.00
17639;DHT22;8938;53.546;9.954;2023-03-01T02:01:30;6.90;92.80
17639;DHT22;8938;53.546;9.954;2023-03-01T02:03:56;6.90;92.70
17639;DHT22;8938;53.546;9.954;2023-03-01T02:06:32;6.90;92.70
17639;DHT22;8938;53.546;9.954;2023-03-01T02:09:02;6.90;92.70
17639;DHT22;8938;53.546;9.954;2023-03-01T02:11:30;6.90;92.60
17639;DHT22;8938;53.546;9.954;2023-03-01T02:13:56;6.90;92.50
17639;DHT22;8938;53.546;9.954;2023-03-01T02:16:22;6.90;92.40
17639;DHT22;8938;53.546;9.954;2023-03-01T02:18:49;6.80;92.30
17639;DHT22;8938;53.546;9.954;2023-03-01T02:26:48;6.70;92.30
17639;DHT22;8938;53.546;9.954;2023-03-01T02:29:15;6.60;92.30
17639;DHT22;8938;53.546;9.954;2023-03-01T02:31:41;6.60;92.40
17639;DHT22;8938;53.546;9.954;2023-03-01T02:34:08;6.70;92.40
17639;DHT22;8938;53.546;9.954;2023-03-01T02:36:37;6.80;92.40
17639;DHT22;8938;53.546;9.954;2023-03-01T02:39:05;6.90;92.30
17639;DHT22;8938;53.546;9.954;2023-03-01T02:41:35;7.00;92.40
17639;DHT22;8938;53.546;9.954;2023-03-01T02:44:03;6.90;92.00
17639;DHT22;8938;53.546;9.954;2023-03-01T02:46:29;6.90;91.90
17639;DHT22;8938;53.546;9.954;2023-03-01T02:48:56;6.90;91.80
17639;DHT22;8938;53.546;9.954;2023-03-01T02:51:58;6.80;91.70
17639;DHT22;8938;53.546;9.954;2023-03-01T02:54:36;6.80;91.70
17639;DHT22;8938;53.546;9.954;2023-03-01T02:57:02;6.70;91.70
17639;DHT22;8938;53.546;9.954;2023-03-01T02:59:31;6.70;91.80
17639;DHT22;8938;53.546;9.954;2023-03-01T03:01:57;6.70;91.90
17639;DHT22;8938;53.546;9.954;2023-03-01T03:04:23;6.70;91.90
17639;DHT22;8938;53.546;9.954;2023-03-01T03:06:50;6.70;91.90
17639;DHT22;8938;53.546;9.954;2023-03-01T03:09:16;6.70;91.90
17639;DHT22;8938;53.546;9.954;2023-03-01T03:11:42;6.70;92.00
17639;DHT22;8938;53.546;9.954;2023-03-01T03:14:09;6.70;92.00
17639;DHT22;8938;53.546;9.954;2023-03-01T03:16:45;6.80;92.00
17639;DHT22;8938;53.546;9.954;2023-03-01T03:19:10;6.80;91.90
17639;DHT22;8938;53.546;9.954;2023-03-01T03:21:36;6.70;91.90
17639;DHT22;8938;53.546;9.954;2023-03-01T03:24:03;6.70;92.00
17639;DHT22;8938;53.546;9.954;2023-03-01T03:26:29;6.80;92.10
17639;DHT22;8938;53.546;9.954;2023-03-01T03:28:55;6.80;92.10
17639;DHT22;8938;53.546;9.954;2023-03-01T03:31:20;6.80;92.20
17639;DHT22;8938;53.546;9.954;2023-03-01T03:33:46;6.80;92.10
17639;DHT22;8938;53.546;9.954;2023-03-01T03:36:16;6.80;92.10
17639;DHT22;8938;53.546;9.954;2023-03-01T03:38:46;6.80;92.20
17639;DHT22;8938;53.546;9.954;2023-03-01T03:41:12;6.90;92.20
17639;DHT22;8938;53.546;9.954;2023-03-01T03:43:39;6.80;92.00
17639;DHT22;8938;53.546;9.954;2023-03-01T03:46:06;6.80;92.00
17639;DHT22;8938;53.546;9.954;2023-03-01T03:48:40;6.80;92.00
17639;DHT22;8938;53.546;9.954;2023-03-01T03:51:06;6.90;92.00
17639;DHT22;8938;53.546;9.954;2023-03-01T03:53:33;6.90;92.00
17639;DHT22;8938;53.546;9.954;2023-03-01T03:55:58;6.90;92.00
17639;DHT22;8938;53.546;9.954;2023-03-01T03:58:25;6.90;92.00
17639;DHT22;8938;53.546;9.954;2023-03-01T04:00:56;7.00;92.00
17639;DHT22;8938;53.546;9.954;2023-03-01T04:03:23;7.00;92.00
17639;DHT22;8938;53.546;9.954;2023-03-01T04:05:49;7.00;92.10
17639;DHT22;8938;53.546;9.954;2023-03-01T04:08:16;7.00;92.10
17639;DHT22;8938;53.546;9.954;2023-03-01T04:10:46;7.10;92.00
17639;DHT22;8938;53.546;9.954;2023-03-01T04:13:16;7.10;92.00
17639;DHT22;8938;53.546;9.954;2023-03-01T04:15:42;7.20;92.00
17639;DHT22;8938;53.546;9.954;2023-03-01T04:18:15;7.20;92.00
17639;DHT22;8938;53.546;9.954;2023-03-01T04:20:41;7.30;92.00
17639;DHT22;8938;53.546;9.954;2023-03-01T04:23:13;7.30;92.00
17639;DHT22;8938;53.546;9.954;2023-03-01T04:25:45;7.30;92.10
17639;DHT22;8938;53.546;9.954;2023-03-01T04:28:11;7.30;92.20
17639;DHT22;8938;53.546;9.954;2023-03-01T04:30:38;7.30;92.30
17639;DHT22;8938;53.546;9.954;2023-03-01T04:33:06;7.30;92.30
17639;DHT22;8938;53.546;9.954;2023-03-01T04:35:32;7.30;92.30
17639;DHT22;8938;53.546;9.954;2023-03-01T04:37:58;7.30;92.40
17639;DHT22;8938;53.546;9.954;2023-03-01T04:40:24;7.30;92.30
17639;DHT22;8938;53.546;9.954;2023-03-01T04:42:50;7.40;92.30
17639;DHT22;8938;53.546;9.954;2023-03-01T04:45:15;7.40;92.20
17639;DHT22;8938;53.546;9.954;2023-03-01T04:47:42;7.50;92.20
17639;DHT22;8938;53.546;9.954;2023-03-01T04:50:10;7.50;92.10
17639;DHT22;8938;53.546;9.954;2023-03-01T04:52:36;7.50;92.10
17639;DHT22;8938;53.546;9.954;2023-03-01T04:57:36;7.50;92.10
17639;DHT22;8938;53.546;9.954;2023-03-01T05:00:04;7.70;92.10
17639;DHT22;8938;53.546;9.954;2023-03-01T05:02:53;7.40;91.90
17639;DHT22;8938;53.546;9.954;2023-03-01T05:05:24;7.30;92.00
17639;DHT22;8938;53.546;9.954;2023-03-01T05:07:52;7.20;92.10
17639;DHT22;8938;53.546;9.954;2023-03-01T05:10:18;7.20;92.20
17639;DHT22;8938;53.546;9.954;2023-03-01T05:12:43;7.20;92.30
17639;DHT22;8938;53.546;9.954;2023-03-01T05:15:09;7.20;92.30
17639;DHT22;8938;53.546;9.954;2023-03-01T05:17:35;7.30;92.30
17639;DHT22;8938;53.546;9.954;2023-03-01T05:20:01;7.30;92.30
17639;DHT22;8938;53.546;9.954;2023-03-01T05:22:27;7.30;92.30
17639;DHT22;8938;53.546;9.954;2023-03-01T05:24:53;7.30;92.30
17639;DHT22;8938;53.546;9.954;2023-03-01T05:27:19;7.20;92.40
17639;DHT22;8938;53.546;9.954;2023-03-01T05:29:47;7.00;92.40
17639;DHT22;8938;53.546;9.954;2023-03-01T05:32:13;7.00;92.60
17639;DHT22;8938;53.546;9.954;2023-03-01T05:34:41;7.10;92.70
17639;DHT22;8938;53.546;9.954;2023-03-01T05:37:06;7.20;92.60
17639;DHT22;8938;53.546;9.954;2023-03-01T05:39:33;7.30;92.60
17639;DHT22;8938;53.546;9.954;2023-03-01T05:42:00;7.30;92.60
17639;DHT22;8938;53.546;9.954;2023-03-01T05:44:27;7.40;92.60
17639;DHT22;8938;53.546;9.954;2023-03-01T05:46:54;7.40;92.60
17639;DHT22;8938;53.546;9.954;2023-03-01T05:49:22;7.40;92.50
17639;DHT22;8938;53.546;9.954;2023-03-01T05:51:51;7.40;92.60
17639;DHT22;8938;53.546;9.954;2023-03-01T05:54:17;7.50;92.60
17639;DHT22;8938;53.546;9.954;2023-03-01T05:56:43;7.60;92.60
17639;DHT22;8938;53.546;9.954;2023-03-01T05:59:09;7.60;92.60
17639;DHT22;8938;53.546;9.954;2023-03-01T06:01:35;7.70;92.60
17639;DHT22;8938;53.546;9.954;2023-03-01T06:04:01;7.70;92.60
17639;DHT22;8938;53.546;9.954;2023-03-01T06:06:26;7.70;92.60
17639;DHT22;8938;53.546;9.954;2023-03-01T06:08:53;7.80;92.70
17639;DHT22;8938;53.546;9.954;2023-03-01T06:11:19;7.70;92.60
17639;DHT22;8938;53.546;9.954;2023-03-01T06:13:45;7.70;92.60
17639;DHT22;8938;53.546;9.954;2023-03-01T06:16:11;7.80;92.60
17639;DHT22;8938;53.546;9.954;2023-03-01T06:18:37;7.70;92.50
17639;DHT22;8938;53.546;9.954;2023-03-01T06:21:04;7.70;92.60
17639;DHT22;8938;53.546;9.954;2023-03-01T06:23:30;7.70;92.70
17639;DHT22;8938;53.546;9.954;2023-03-01T06:25:55;7.60;92.60
17639;DHT22;8938;53.546;9.954;2023-03-01T06:28:22;7.50;92.70
17639;DHT22;8938;53.546;9.954;2023-03-01T06:30:48;7.50;92.90
17639;DHT22;8938;53.546;9.954;2023-03-01T06:33:14;7.60;93.10
17639;DHT22;8938;53.546;9.954;2023-03-01T06:35:40;7.30;93.10
17639;DHT22;8938;53.546;9.954;2023-03-01T06:38:05;7.30;93.30
17639;DHT22;8938;53.546;9.954;2023-03-01T06:40:31;7.40;93.40
17639;DHT22;8938;53.546;9.954;2023-03-01T06:42:58;7.30;93.20
17639;DHT22;8938;53.546;9.954;2023-03-01T06:45:24;7.20;93.30
17639;DHT22;8938;53.546;9.954;2023-03-01T06:47:50;7.20;93.60
17639;DHT22;8938;53.546;9.954;2023-03-01T06:50:17;7.20;93.60
17639;DHT22;8938;53.546;9.954;2023-03-01T06:52:43;7.30;93.60
17639;DHT22;8938;53.546;9.954;2023-03-01T06:55:10;7.30;93.60
17639;DHT22;8938;53.546;9.954;2023-03-01T06:57:36;7.50;93.60
17639;DHT22;8938;53.546;9.954;2023-03-01T07:00:04;7.50;93.60
17639;DHT22;8938;53.546;9.954;2023-03-01T07:02:31;7.60;93.50
17639;DHT22;8938;53.546;9.954;2023-03-01T07:04:56;7.60;93.40
17639;DHT22;8938;53.546;9.954;2023-03-01T07:07:22;7.60;93.40
17639;DHT22;8938;53.546;9.954;2023-03-01T07:09:48;7.60;93.50
17639;DHT22;8938;53.546;9.954;2023-03-01T07:12:14;7.70;93.50
17639;DHT22;8938;53.546;9.954;2023-03-01T07:14:40;7.80;93.40
17639;DHT22;8938;53.546;9.954;2023-03-01T07:17:06;7.90;93.40
17639;DHT22;8938;53.546;9.954;2023-03-01T07:19:32;7.90;93.30
17639;DHT22;8938;53.546;9.954;2023-03-01T07:21:57;8.00;93.30
17639;DHT22;8938;53.546;9.954;2023-03-01T07:24:23;8.00;93.00
17639;DHT22;8938;53.546;9.954;2023-03-01T07:26:50;8.00;92.90
17639;DHT22;8938;53.546;9.954;2023-03-01T07:29:16;7.90;92.90
17639;DHT22;8938;53.546;9.954;2023-03-01T07:31:42;7.90;93.00
17639;DHT22;8938;53.546;9.954;2023-03-01T07:34:07;7.90;93.00
17639;DHT22;8938;53.546;9.954;2023-03-01T07:36:33;8.00;93.00
17639;DHT22;8938;53.546;9.954;2023-03-01T07:38:58;8.00;92.90
17639;DHT22;8938;53.546;9.954;2023-03-01T07:41:24;8.10;92.80
17639;DHT22;8938;53.546;9.954;2023-03-01T07:43:50;8.30;92.70
17639;DHT22;8938;53.546;9.954;2023-03-01T07:46:15;8.00;92.50
17639;DHT22;8938;53.546;9.954;2023-03-01T07:48:41;8.10;92.70
17639;DHT22;8938;53.546;9.954;2023-03-01T07:51:07;8.10;92.70
17639;DHT22;8938;53.546;9.954;2023-03-01T07:53:33;8.30;92.80
17639;DHT22;8938;53.546;9.954;2023-03-01T07:56:04;8.40;92.70
17639;DHT22;8938;53.546;9.954;2023-03-01T07:58:30;8.30;92.70
17639;DHT22;8938;53.546;9.954;2023-03-01T08:00:55;8.40;92.70
17639;DHT22;8938;53.546;9.954;2023-03-01T08:03:21;8.40;92.70
17639;DHT22;8938;53.546;9.954;2023-03-01T08:05:46;8.50;92.80
17639;DHT22;8938;53.546;9.954;2023-03-01T08:08:12;8.40;92.80
17639;DHT22;8938;53.546;9.954;2023-03-01T08:10:38;8.40;92.90
17639;DHT22;8938;53.546;9.954;2023-03-01T08:13:03;8.40;93.00
17639;DHT22;8938;53.546;9.954;2023-03-01T08:15:29;8.50;93.30
17639;DHT22;8938;53.546;9.954;2023-03-01T08:17:54;8.60;93.30
17639;DHT22;8938;53.546;9.954;2023-03-01T08:20:20;8.80;93.40
17639;DHT22;8938;53.546;9.954;2023-03-01T08:22:46;8.90;93.30
17639;DHT22;8938;53.546;9.954;2023-03-01T08:25:11;9.00;93.20
17639;DHT22;8938;53.546;9.954;2023-03-01T08:27:37;9.10;93.20
17639;DHT22;8938;53.546;9.954;2023-03-01T08:30:02;9.10;93.20
17639;DHT22;8938;53.546;9.954;2023-03-01T08:32:28;9.10;93.10
17639;DHT22;8938;53.546;9.954;2023-03-01T08:34:54;9.10;93.10
17639;DHT22;8938;53.546;9.954;2023-03-01T08:37:19;9.10;93.20
17639;DHT22;8938;53.546;9.954;2023-03-01T08:39:45;9.10;93.20
17639;DHT22;8938;53.546;9.954;2023-03-01T08:42:11;9.20;93.20
17639;DHT22;8938;53.546;9.954;2023-03-01T08:44:37;9.20;93.20
17639;DHT22;8938;53.546;9.954;2023-03-01T08:47:02;9.30;93.30
17639;DHT22;8938;53.546;9.954;2023-03-01T08:49:30;10.20;93.60
17639;DHT22;8938;53.546;9.954;2023-03-01T08:52:02;9.30;93.50
17639;DHT22;8938;53.546;9.954;2023-03-01T08:54:29;9.40;93.40
17639;DHT22;8938;53.546;9.954;2023-03-01T08:56:54;9.50;93.50
17639;DHT22;8938;53.546;9.954;2023-03-01T08:59:20;9.70;93.50
17639;DHT22;8938;53.546;9.954;2023-03-01T09:01:45;9.70;93.40
17639;DHT22;8938;53.546;9.954;2023-03-01T09:04:12;9.70;93.40
17639;DHT22;8938;53.546;9.954;2023-03-01T09:06:39;9.70;93.40
17639;DHT22;8938;53.546;9.954;2023-03-01T09:09:06;9.60;93.60
17639;DHT22;8938;53.546;9.954;2023-03-01T09:11:33;9.40;93.60
17639;DHT22;8938;53.546;9.954;2023-03-01T09:13:58;9.40;93.80
17639;DHT22;8938;53.546;9.954;2023-03-01T09:16:24;9.40;94.00
17639;DHT22;8938;53.546;9.954;2023-03-01T09:18:51;9.60;94.00
17639;DHT22;8938;53.546;9.954;2023-03-01T09:21:22;9.40;94.00
17639;DHT22;8938;53.546;9.954;2023-03-01T09:23:49;9.40;94.20
17639;DHT22;8938;53.546;9.954;2023-03-01T09:26:20;9.50;94.20
17639;DHT22;8938;53.546;9.954;2023-03-01T09:28:47;9.60;94.10
17639;DHT22;8938;53.546;9.954;2023-03-01T09:31:15;9.80;94.10
17639;DHT22;8938;53.546;9.954;2023-03-01T09:33:42;9.90;94.20
17639;DHT22;8938;53.546;9.954;2023-03-01T09:36:14;10.00;94.10
17639;DHT22;8938;53.546;9.954;2023-03-01T09:38:40;10.10;94.10
17639;DHT22;8938;53.546;9.954;2023-03-01T09:44:32;10.30;94.10
17639;DHT22;8938;53.546;9.954;2023-03-01T09:47:02;10.40;93.90
17639;DHT22;8938;53.546;9.954;2023-03-01T09:49:31;10.80;94.10
17639;DHT22;8938;53.546;9.954;2023-03-01T09:52:38;11.60;94.20
17639;DHT22;8938;53.546;9.954;2023-03-01T09:55:13;12.10;93.30
17639;DHT22;8938;53.546;9.954;2023-03-01T09:57:53;12.90;93.20
17639;DHT22;8938;53.546;9.954;2023-03-01T10:00:25;13.90;92.20
17639;DHT22;8938;53.546;9.954;2023-03-01T10:03:08;14.50;91.70
17639;DHT22;8938;53.546;9.954;2023-03-01T10:06:10;14.80;90.80
17639;DHT22;8938;53.546;9.954;2023-03-01T10:08:58;14.30;90.20
17639;DHT22;8938;53.546;9.954;2023-03-01T10:11:30;13.70;90.70
17639;DHT22;8938;53.546;9.954;2023-03-01T10:19:46;12.90;91.70
17639;DHT22;8938;53.546;9.954;2023-03-01T10:22:22;12.60;91.90
17639;DHT22;8938;53.546;9.954;2023-03-01T10:24:51;12.40;92.10
17639;DHT22;8938;53.546;9.954;2023-03-01T10:27:29;12.30;92.20
17639;DHT22;8938;53.546;9.954;2023-03-01T10:30:14;12.40;92.30
17639;DHT22;8938;53.546;9.954;2023-03-01T10:32:42;12.50;92.50
17639;DHT22;8938;53.546;9.954;2023-03-01T10:35:24;12.60;92.50
17639;DHT22;8938;53.546;9.954;2023-03-01T10:38:08;12.50;92.50
17639;DHT22;8938;53.546;9.954;2023-03-01T10:40:46;12.40;92.50
17639;DHT22;8938;53.546;9.954;2023-03-01T10:43:15;12.30;92.70
17639;DHT22;8938;53.546;9.954;2023-03-01T10:45:40;12.30;92.90
17639;DHT22;8938;53.546;9.954;2023-03-01T10:48:26;12.30;92.90
17639;DHT22;8938;53.546;9.954;2023-03-01T10:53:37;12.40;92.70
17639;DHT22;8938;53.546;9.954;2023-03-01T10:56:07;12.10;92.90
17639;DHT22;8938;53.546;9.954;2023-03-01T10:58:35;12.00;93.00
17639;DHT22;8938;53.546;9.954;2023-03-01T11:01:04;12.00;93.20
17639;DHT22;8938;53.546;9.954;2023-03-01T11:03:36;11.90;93.20
17639;DHT22;8938;53.546;9.954;2023-03-01T11:11:33;11.40;94.00
17639;DHT22;8938;53.546;9.954;2023-03-01T11:14:25;11.20;94.10
17639;DHT22;8938;53.546;9.954;2023-03-01T11:17:05;11.30;94.40
17639;DHT22;8938;53.546;9.954;2023-03-01T11:19:36;11.40;94.50
17639;DHT22;8938;53.546;9.954;2023-03-01T11:22:07;11.50;94.50
17639;DHT22;8938;53.546;9.954;2023-03-01T11:24:45;11.50;94.50
17639;DHT22;8938;53.546;9.954;2023-03-01T11:27:27;11.60;94.60
17639;DHT22;8938;53.546;9.954;2023-03-01T11:30:20;11.60;94.70
17639;DHT22;8938;53.546;9.954;2023-03-01T11:32:57;11.60;94.80
17639;DHT22;8938;53.546;9.954;2023-03-01T11:35:27;11.60;94.80
17639;DHT22;8938;53.546;9.954;2023-03-01T11:46:29;11.80;94.90
17639;DHT22;8938;53.546;9.954;2023-03-01T11:57:53;11.90;95.10
17639;DHT22;8938;53.546;9.954;2023-03-01T12:03:28;12.00;95.20
17639;DHT22;8938;53.546;9.954;2023-03-01T12:06:08;12.10;95.20
17639;DHT22;8938;53.546;9.954;2023-03-01T12:08:45;12.10;94.90
17639;DHT22;8938;53.546;9.954;2023-03-01T12:25:16;12.60;94.90
17639;DHT22;8938;53.546;9.954;2023-03-01T12:28:11;12.60;94.70
17639;DHT22;8938;53.546;9.954;2023-03-01T12:31:00;12.70;94.90
17639;DHT22;8938;53.546;9.954;2023-03-01T12:42:48;12.90;94.80
17639;DHT22;8938;53.546;9.954;2023-03-01T12:51:08;13.20;94.50
17639;DHT22;8938;53.546;9.954;2023-03-01T12:53:40;13.10;94.30
17639;DHT22;8938;53.546;9.954;2023-03-01T12:56:09;12.90;94.60
17639;DHT22;8938;53.546;9.954;2023-03-01T13:07:41;13.60;94.60
17639;DHT22;8938;53.546;9.954;2023-03-01T13:10:20;13.70;94.30
17639;DHT22;8938;53.546;9.954;2023-03-01T13:18:33;13.90;94.10
17639;DHT22;8938;53.546;9.954;2023-03-01T13:20:44;13.90;94.20
17639;DHT22;8938;53.546;9.954;2023-03-01T13:33:51;13.80;93.80
17639;DHT22;8938;53.546;9.954;2023-03-01T13:46:46;13.80;94.20
17639;DHT22;8938;53.546;9.954;2023-03-01T13:49:16;13.80;94.10
17639;DHT22;8938;53.546;9.954;2023-03-01T13:51:46;13.80;94.10
17639;DHT22;8938;53.546;9.954;2023-03-01T13:54:27;13.70;94.10
17639;DHT22;8938;53.546;9.954;2023-03-01T13:56:55;13.70;94.00
17639;DHT22;8938;53.546;9.954;2023-03-01T13:59:24;13.60;93.70
17639;DHT22;8938;53.546;9.954;2023-03-01T14:01:55;13.50;93.90
17639;DHT22;8938;53.546;9.954;2023-03-01T14:04:28;13.50;94.20
17639;DHT22;8938;53.546;9.954;2023-03-01T14:07:20;13.50;94.10
17639;DHT22;8938;53.546;9.954;2023-03-01T14:09:48;13.50;94.20
17639;DHT22;8938;53.546;9.954;2023-03-01T14:12:32;13.30;93.90
17639;DHT22;8938;53.546;9.954;2023-03-01T14:15:31;13.00;94.30
17639;DHT22;8938;53.546;9.954;2023-03-01T14:18:12;13.00;94.50
17639;DHT22;8938;53.546;9.954;2023-03-01T14:20:42;13.00;94.70
17639;DHT22;8938;53.546;9.954;2023-03-01T14:23:20;13.00;94.70
17639;DHT22;8938;53.546;9.954;2023-03-01T14:25:51;13.10;94.70
17639;DHT22;8938;53.546;9.954;2023-03-01T14:28:32;13.00;94.60
17639;DHT22;8938;53.546;9.954;2023-03-01T14:31:03;12.90;94.50
17639;DHT22;8938;53.546;9.954;2023-03-01T14:33:55;12.80;94.70
17639;DHT22;8938;53.546;9.954;2023-03-01T14:36:26;12.60;94.70
17639;DHT22;8938;53.546;9.954;2023-03-01T14:38:54;12.70;94.90
17639;DHT22;8938;53.546;9.954;2023-03-01T14:41:22;12.80;95.00
17639;DHT22;8938;53.546;9.954;2023-03-01T14:43:56;12.80;94.70
17639;DHT22;8938;53.546;9.954;2023-03-01T14:46:29;12.80;94.60
17639;DHT22;8938;53.546;9.954;2023-03-01T14:49:01;12.80;94.60
17639;DHT22;8938;53.546;9.954;2023-03-01T14:51:27;12.90;94.70
17639;DHT22;8938;53.546;9.954;2023-03-01T14:53:53;12.90;94.70
17639;DHT22;8938;53.546;9.954;2023-03-01T14:56:19;13.00;94.70
17639;DHT22;8938;53.546;9.954;2023-03-01T14:58:45;13.00;94.50
17639;DHT22;8938;53.546;9.954;2023-03-01T15:01:17;12.90;94.60
17639;DHT22;8938;53.546;9.954;2023-03-01T15:03:47;12.90;94.70
17639;DHT22;8938;53.546;9.954;2023-03-01T15:06:25;12.80;94.70
17639;DHT22;8938;53.546;9.954;2023-03-01T15:08:52;12.80;94.70
17639;DHT22;8938;53.546;9.954;2023-03-01T15:11:32;12.80;94.80
17639;DHT22;8938;53.546;9.954;2023-03-01T15:13:58;12.70;94.70
17639;DHT22;8938;53.546;9.954;2023-03-01T15:16:30;12.50;94.90
17639;DHT22;8938;53.546;9.954;2023-03-01T15:19:03;12.50;95.00
17639;DHT22;8938;53.546;9.954;2023-03-01T15:21:34;12.50;94.90
17639;DHT22;8938;53.546;9.954;2023-03-01T15:24:19;12.40;95.10
17639;DHT22;8938;53.546;9.954;2023-03-01T15:26:50;12.30;94.90
17639;DHT22;8938;53.546;9.954;2023-03-01T15:29:25;12.20;95.10
17639;DHT22;8938;53.546;9.954;2023-03-01T15:31:59;12.20;95.20
17639;DHT22;8938;53.546;9.954;2023-03-01T15:34:36;12.30;95.30
17639;DHT22;8938;53.546;9.954;2023-03-01T15:40:29;12.20;95.30
17639;DHT22;8938;53.546;9.954;2023-03-01T15:43:02;12.20;95.30
17639;DHT22;8938;53.546;9.954;2023-03-01T15:45:29;12.20;95.30
17639;DHT22;8938;53.546;9.954;2023-03-01T15:47:57;12.20;95.20
17639;DHT22;8938;53.546;9.954;2023-03-01T15:50:37;12.20;95.20
17639;DHT22;8938;53.546;9.954;2023-03-01T15:53:09;12.20;95.20
17639;DHT22;8938;53.546;9.954;2023-03-01T15:55:36;12.10;95.30
17639;DHT22;8938;53.546;9.954;2023-03-01T15:58:20;12.10;95.50
17639;DHT22;8938;53.546;9.954;2023-03-01T16:00:47;12.10;95.50
17639;DHT22;8938;53.546;9.954;2023-03-01T16:03:14;12.00;95.60
17639;DHT22;8938;53.546;9.954;2023-03-01T16:05:42;11.90;95.60
17639;DHT22;8938;53.546;9.954;2023-03-01T16:08:11;11.90;95.80
17639;DHT22;8938;53.546;9.954;2023-03-01T16:10:37;11.80;95.90
17639;DHT22;8938;53.546;9.954;2023-03-01T16:13:03;11.80;95.90
17639;DHT22;8938;53.546;9.954;2023-03-01T16:15:31;11.80;96.00
17639;DHT22;8938;53.546;9.954;2023-03-01T16:17:57;11.70;96.10
17639;DHT22;8938;53.546;9.954;2023-03-01T16:20:26;11.70;96.20
17639;DHT22;8938;53.546;9.954;2023-03-01T16:22:52;11.60;96.20
17639;DHT22;8938;53.546;9.954;2023-03-01T16:25:20;11.60;96.20
17639;DHT22;8938;53.546;9.954;2023-03-01T16:27:49;11.60;96.20
17639;DHT22;8938;53.546;9.954;2023-03-01T16:30:17;11.50;96.30
17639;DHT22;8938;53.546;9.954;2023-03-01T16:32:44;11.40;96.30
17639;DHT22;8938;53.546;9.954;2023-03-01T16:35:12;11.30;96.50
17639;DHT22;8938;53.546;9.954;2023-03-01T16:37:38;11.20;96.60
17639;DHT22;8938;53.546;9.954;2023-03-01T16:40:05;11.20;96.80
17639;DHT22;8938;53.546;9.954;2023-03-01T16:42:35;11.20;96.90
17639;DHT22;8938;53.546;9.954;2023-03-01T16:45:01;11.10;96.80
17639;DHT22;8938;53.546;9.954;2023-03-01T16:47:27;11.10;97.00
17639;DHT22;8938;53.546;9.954;2023-03-01T16:49:54;11.10;97.00
17639;DHT22;8938;53.546;9.954;2023-03-01T16:52:20;11.10;97.00
17639;DHT22;8938;53.546;9.954;2023-03-01T16:54:46;11.10;97.00
17639;DHT22;8938;53.546;9.954;2023-03-01T16:57:23;11.10;97.00
17639;DHT22;8938;53.546;9.954;2023-03-01T16:59:51;11.10;97.10
17639;DHT22;8938;53.546;9.954;2023-03-01T17:02:18;11.10;97.00
17639;DHT22;8938;53.546;9.954;2023-03-01T17:04:45;11.10;97.00
17639;DHT22;8938;53.546;9.954;2023-03-01T17:07:16;11.10;97.00
17639;DHT22;8938;53.546;9.954;2023-03-01T17:09:41;11.00;96.90
17639;DHT22;8938;53.546;9.954;2023-03-01T17:12:07;11.00;96.90
17639;DHT22;8938;53.546;9.954;2023-03-01T17:14:32;11.10;96.90
17639;DHT22;8938;53.546;9.954;2023-03-01T17:16:58;11.10;96.80
17639;DHT22;8938;53.546;9.954;2023-03-01T17:19:24;10.90;96.90
17639;DHT22;8938;53.546;9.954;2023-03-01T17:21:49;11.00;96.90
17639;DHT22;8938;53.546;9.954;2023-03-01T17:24:15;10.90;97.00
17639;DHT22;8938;53.546;9.954;2023-03-01T17:26:41;10.90;97.10
17639;DHT22;8938;53.546;9.954;2023-03-01T17:29:06;10.90;97.10
17639;DHT22;8938;53.546;9.954;2023-03-01T17:31:33;10.90;97.10
17639;DHT22;8938;53.546;9.954;2023-03-01T17:33:59;10.90;97.10
17639;DHT22;8938;53.546;9.954;2023-03-01T17:36:24;10.90;97.00
17639;DHT22;8938;53.546;9.954;2023-03-01T17:38:50;10.90;97.10
17639;DHT22;8938;53.546;9.954;2023-03-01T17:41:16;10.90;97.10
17639;DHT22;8938;53.546;9.954;2023-03-01T17:43:43;10.90;97.10
17639;DHT22;8938;53.546;9.954;2023-03-01T17:46:15;10.90;97.10
17639;DHT22;8938;53.546;9.954;2023-03-01T17:48:41;10.80;97.10
17639;DHT22;8938;53.546;9.954;2023-03-01T17:51:08;10.60;97.20
17639;DHT22;8938;53.546;9.954;2023-03-01T17:53:35;10.50;97.30
17639;DHT22;8938;53.546;9.954;2023-03-01T17:56:05;10.40;97.50
17639;DHT22;8938;53.546;9.954;2023-03-01T17:58:31;10.40;97.60
17639;DHT22;8938;53.546;9.954;2023-03-01T18:01:14;10.10;98.00